Nearby METAR Reports

 

KLMT - Klamath Falls, Oregon, USA
Distance from station: WNW 15mi, 25km
Updated: 10/23/2018 9:53am
Clear
Clear
 Wind from calm
Wind: Calm
Temperature: 46°F , 8°C
Dew Point: 28°F , -2°C
Humidity: 50%
Barometer: 30.04 inHg , 1017.3 hPa
Clouds: Clear
Visibility: 10 miles , 16 km
2018/10/23 16:53 KLMT 231653Z 00000KT 10SM CLR 08/M02 A3004 RMK AO2 SLP167 T00831017
KLKV - Lakeview, Oregon, USA
Distance from station: E 53mi, 85km
Updated: 10/23/2018 9:53am
Clear
Clear
 Wind from calm
Wind: Calm
Temperature: 43°F , 6°C
Dew Point: 28°F , -2°C
Humidity: 57%
Barometer: 30.08 inHg , 1018.6 hPa
Clouds: Clear
Visibility: 10 miles , 16 km
2018/10/23 16:53 KLKV 231653Z AUTO 00000KT 10SM CLR 06/M02 A3008 RMK AO2 SLP654 T00611022
 
KSIY - Montague/Siskiyo, California, USA
Distance from station: WSW 58mi, 93km
Updated: 10/23/2018 9:53am
Clear
Clear
 Wind from NNE
Wind: NNE 8 mph , 13 km/h
Temperature: 54°F , 12°C
Dew Point: 27°F , -3°C
Humidity: 35%
Barometer: 30.01 inHg , 1016.3 hPa
Clouds: Clear
Visibility: 10 miles , 16 km
2018/10/23 16:53 KSIY 231653Z AUTO 03007KT 10SM CLR 12/M03 A3001 RMK AO2 SLP167 T01171028
KAAT - Alturas, California, USA
Distance from station: SE 61mi, 98km
Updated: 10/23/2018 9:55am
Clear
Clear
 Wind from calm
Wind: Calm
Temperature: 45°F , 7°C
Dew Point: 28°F , -2°C
Humidity: 53%
Barometer: 30.08 inHg , 1018.6 hPa
Clouds: Clear
Visibility: 10 miles , 16 km
2018/10/23 16:55 KAAT 231655Z AUTO 00000KT 10SM CLR 07/M02 A3008 RMK AO2 SLP179 T00721022
 
KMHS - Mount Shasta, California, USA
Distance from station: SW 70mi, 113km
Updated: 10/23/2018 9:56am
Clear
Clear
 Wind from calm
Wind: Calm
Temperature: 55°F , 13°C
Dew Point: 36°F , 2°C
Humidity: 47%
Barometer: 30.04 inHg , 1017.3 hPa
Clouds: Clear
Visibility: 10 miles , 16 km
2018/10/23 16:56 KMHS 231656Z AUTO 00000KT 10SM CLR 13/02 A3004 RMK AO2 SLP182 T01280022
KMFR - Medford, Oregon, USA
Distance from station: WNW 76mi, 123km
Updated: 10/23/2018 9:53am
Clear
Clear
 Wind from E
Wind: E 5 mph , 7 km/h
Temperature: 46°F , 8°C
Wind Chill: 44°F , 7°C
Dew Point: 34°F , 1°C
Humidity: 62%
Barometer: 29.95 inHg , 1014.2 hPa
Clouds: Clear
Visibility: 10 miles , 16 km
2018/10/23 16:53 KMFR 231653Z 09004KT 10SM CLR 08/01 A2995 RMK AO2 SLP140 T00830011